South Montesano, Washington
Current Conditions -  °F | °C
As of 1:14 PM on Wednesday 26 Nov 2014 (Local Time) from KSHN Reporting Station
Haze Haze  
Wind Chill: 55°   Ceiling: 1400
Heat Index: 55°   Visibility: 4mi
Dew Point: 53°   Wind: 5mph
Humidity: 93%   Direction: 240°WSW
Pressure: 30.04"   Gusts: NA
Location:  47.555°N, 123.746°W
Report Text: KSHN 262114Z AUTO 24004KT 4SM BR BKN014 OVC027 13/12 A3004 RMK AO2 T01280117
Loading
Personal Weather Stations






























Interactive Weather Map New forecast layout! Learn more

10-Day Weather Forecast

Advertisements
Track Severe Weather on mobile